Terminal Aerodrome Forecast
Issued by NWS Memphis, TN

Home | Current Version | Previous Version | Text Only | Print | Product List | Glossary On
Versions: 1 2 3 4 5 6 7 8 9 10 11 12 13 14 15 16 17 18 19 20 21 22 23 24 25 26 27 28 29
967
FTUS44 KMEG 231130
TAFMEM
TAF
KMEM 231130Z 2312/2412 33015G25KT P6SM SCT020
     FM231400 33012G20KT P6SM SCT020
      TEMPO 2314/2318 SCT008 OVC015
     FM231800 33010G15KT P6SM OVC015
     FM232000 32010G15KT P6SM BKN025
     FM240100 VRB03KT P6SM SCT250
      TEMPO 2408/2412 5SM BR=

USA.gov is the U.S. government's official web portal to all federal, state and local government web resources and services.